Time,TemperatureF,DewpointF,PressureIn,WindDirection,WindDirectionDegrees,WindSpeedMPH,WindSpeedGustMPH,Humidity,HourlyPrecipIn,Conditions,Clouds,dailyrainin,SoftwareType,DateUTC
2013-01-07 00:00:00,30.5,27.9,29.90,NW,308,2.0,2.0,90,0.00,,,0.00,Wunderground v.1.15,2013-01-07 05:00:00,
2013-01-07 00:01:00,30.5,27.9,29.90,West,276,6.0,6.0,90,0.00,,,0.00,Wunderground v.1.15,2013-01-07 05:01:00,
2013-01-07 00:02:00,30.5,27.6,29.91,NW,314,1.0,6.0,89,0.00,,,0.00,Wunderground v.1.15,2013-01-07 05:02:00,
2013-01-07 00:05:00,30.5,27.9,29.90,WNW,299,1.0,6.0,90,0.00,,,0.00,Wunderground v.1.15,2013-01-07 05:05:00,
2013-01-07 00:11:00,30.5,27.6,29.91,WNW,297,1.0,5.0,89,0.00,,,0.00,Wunderground v.1.15,2013-01-07 05:11:00,
2013-01-07 00:17:00,30.5,27.6,29.91,West,276,1.0,5.0,89,0.00,,,0.00,Wunderground v.1.15,2013-01-07 05:17:00,
2013-01-07 00:22:00,30.4,27.8,29.91,North,349,1.0,3.0,90,0.00,,,0.00,Wunderground v.1.15,2013-01-07 05:22:00,
2013-01-07 00:28:00,30.4,27.5,29.91,WSW,253,0.0,4.0,89,0.00,,,0.00,Wunderground v.1.15,2013-01-07 05:28:00,
2013-01-07 00:33:00,30.4,27.5,29.91,West,264,1.0,3.0,89,0.00,,,0.00,Wunderground v.1.15,2013-01-07 05:33:00,
2013-01-07 00:39:00,30.4,27.5,29.91,NW,308,1.0,2.0,89,0.00,,,0.00,Wunderground v.1.15,2013-01-07 05:39:00,
2013-01-07 00:44:00,30.4,27.5,29.91,WNW,287,0.0,3.0,89,0.00,,,0.00,Wunderground v.1.15,2013-01-07 05:44:00,
2013-01-07 00:49:00,30.4,27.5,29.91,WNW,289,1.0,1.0,89,0.00,,,0.00,Wunderground v.1.15,2013-01-07 05:49:00,
2013-01-07 00:54:00,30.4,27.5,29.91,NW,305,3.0,5.0,89,0.00,,,0.00,Wunderground v.1.15,2013-01-07 05:54:00,
2013-01-07 00:59:00,30.4,27.5,29.91,WNW,298,1.0,2.0,89,0.00,,,0.00,Wunderground v.1.15,2013-01-07 05:59:00,
2013-01-07 01:04:00,30.5,27.6,29.91,NW,307,4.0,4.0,89,0.00,,,0.00,Wunderground v.1.15,2013-01-07 06:04:00,
2013-01-07 01:10:00,30.4,27.5,29.92,West,277,0.0,2.0,89,0.00,,,0.00,Wunderground v.1.15,2013-01-07 06:10:00,
2013-01-07 01:16:00,30.4,27.5,29.92,NW,316,2.0,5.0,89,0.00,,,0.00,Wunderground v.1.15,2013-01-07 06:16:00,
2013-01-07 01:21:00,30.5,27.6,29.92,ESE,113,0.0,2.0,89,0.00,,,0.00,Wunderground v.1.15,2013-01-07 06:21:00,
2013-01-07 01:26:00,30.5,27.6,29.92,SW,221,1.0,2.0,89,0.00,,,0.00,Wunderground v.1.15,2013-01-07 06:26:00,
2013-01-07 01:32:00,30.5,27.6,29.92,West,270,1.0,1.0,89,0.00,,,0.00,Wunderground v.1.15,2013-01-07 06:32:00,
2013-01-07 01:37:00,30.4,27.5,29.92,South,179,1.0,3.0,89,0.00,,,0.00,Wunderground v.1.15,2013-01-07 06:37:00,
2013-01-07 01:42:00,30.4,27.5,29.93,NW,309,0.0,1.0,89,0.00,,,0.00,Wunderground v.1.15,2013-01-07 06:42:00,
2013-01-07 01:47:00,30.4,27.5,29.93,WNW,291,0.0,1.0,89,0.00,,,0.00,Wunderground v.1.15,2013-01-07 06:47:00,
2013-01-07 01:52:00,30.4,27.5,29.93,West,276,0.0,2.0,89,0.00,,,0.00,Wunderground v.1.15,2013-01-07 06:52:00,
2013-01-07 01:58:00,30.5,27.6,29.93,NW,315,0.0,2.0,89,0.00,,,0.00,Wunderground v.1.15,2013-01-07 06:58:00,
2013-01-07 02:03:00,30.4,27.5,29.93,NW,308,2.0,6.0,89,0.00,,,0.00,Wunderground v.1.15,2013-01-07 07:03:00,
2013-01-07 02:08:00,30.4,27.5,29.94,West,269,1.0,6.0,89,0.00,,,0.00,Wunderground v.1.15,2013-01-07 07:08:00,
2013-01-07 02:13:00,30.4,27.5,29.94,NW,309,1.0,6.0,89,0.00,,,0.00,Wunderground v.1.15,2013-01-07 07:13:00,
2013-01-07 02:18:00,30.4,27.8,29.94,WNW,289,3.0,6.0,90,0.00,,,0.00,Wunderground v.1.15,2013-01-07 07:18:00,
2013-01-07 02:24:00,30.3,27.7,29.95,NW,304,8.0,8.0,90,0.00,,,0.00,Wunderground v.1.15,2013-01-07 07:24:00,
2013-01-07 02:29:00,30.2,27.6,29.95,NW,316,3.0,3.0,90,0.00,,,0.00,Wunderground v.1.15,2013-01-07 07:29:00,
2013-01-07 02:34:00,30.1,27.5,29.95,NW,312,3.0,3.0,90,0.00,,,0.00,Wunderground v.1.15,2013-01-07 07:34:00,
2013-01-07 02:39:00,30.1,27.8,29.95,NW,309,4.0,4.0,91,0.00,,,0.00,Wunderground v.1.15,2013-01-07 07:39:00,
2013-01-07 02:44:00,30.0,27.7,29.96,NW,307,4.0,10.0,91,0.00,,,0.00,Wunderground v.1.15,2013-01-07 07:44:00,
2013-01-07 02:49:00,29.7,27.4,29.96,NW,310,4.0,5.0,91,0.00,,,0.00,Wunderground v.1.15,2013-01-07 07:49:00,
2013-01-07 02:54:00,29.0,26.7,29.96,NW,310,6.0,10.0,91,0.00,,,0.00,Wunderground v.1.15,2013-01-07 07:54:00,
2013-01-07 02:59:00,28.1,26.1,29.97,NW,313,6.0,6.0,92,0.00,,,0.00,Wunderground v.1.15,2013-01-07 07:59:00,
2013-01-07 03:04:00,27.1,25.1,29.97,NW,304,3.0,9.0,92,0.00,,,0.00,Wunderground v.1.15,2013-01-07 08:04:00,
2013-01-07 03:09:00,26.5,24.8,29.98,NNW,346,5.0,5.0,93,0.00,,,0.00,Wunderground v.1.15,2013-01-07 08:09:00,
2013-01-07 03:14:00,25.8,24.1,29.98,NNW,346,4.0,9.0,93,0.00,,,0.00,Wunderground v.1.15,2013-01-07 08:14:00,
2013-01-07 03:19:00,25.0,23.3,29.98,NW,309,1.0,5.0,93,0.00,,,0.00,Wunderground v.1.15,2013-01-07 08:19:00,
2013-01-07 03:24:00,24.3,22.6,29.98,NW,307,4.0,10.0,93,0.00,,,0.00,Wunderground v.1.15,2013-01-07 08:24:00,
2013-01-07 03:29:00,23.9,22.4,29.99,SW,229,0.0,4.0,94,0.00,,,0.00,Wunderground v.1.15,2013-01-07 08:29:00,
2013-01-07 03:34:00,23.6,22.1,29.99,West,263,2.0,8.0,94,0.00,,,0.00,Wunderground v.1.15,2013-01-07 08:34:00,
2013-01-07 03:39:00,23.5,22.0,29.99,NW,310,4.0,4.0,94,0.00,,,0.00,Wunderground v.1.15,2013-01-07 08:39:00,
2013-01-07 03:44:00,23.5,22.0,29.99,NW,319,1.0,6.0,94,0.00,,,0.00,Wunderground v.1.15,2013-01-07 08:44:00,
2013-01-07 03:49:00,23.5,22.0,30.00,NW,319,5.0,5.0,94,0.00,,,0.00,Wunderground v.1.15,2013-01-07 08:49:00,
2013-01-07 03:54:00,23.8,22.3,30.00,NW,319,6.0,6.0,94,0.00,,,0.00,Wunderground v.1.15,2013-01-07 08:54:00,
2013-01-07 03:59:00,23.9,22.4,30.00,NW,308,3.0,3.0,94,0.00,,,0.00,Wunderground v.1.15,2013-01-07 08:59:00,
2013-01-07 04:04:00,24.1,22.6,30.00,NW,312,2.0,4.0,94,0.00,,,0.00,Wunderground v.1.15,2013-01-07 09:04:00,
2013-01-07 04:09:00,24.0,22.3,30.01,NW,304,3.0,4.0,93,0.00,,,0.00,Wunderground v.1.15,2013-01-07 09:09:00,
2013-01-07 04:14:00,23.8,22.1,30.01,West,269,3.0,7.0,93,0.00,,,0.00,Wunderground v.1.15,2013-01-07 09:14:00,
2013-01-07 04:19:00,23.4,21.4,30.01,WNW,291,4.0,5.0,92,0.00,,,0.00,Wunderground v.1.15,2013-01-07 09:19:00,
2013-01-07 04:24:00,22.9,20.9,30.02,WNW,287,2.0,8.0,92,0.00,,,0.00,Wunderground v.1.15,2013-01-07 09:24:00,
2013-01-07 04:29:00,22.7,20.7,30.02,WNW,294,0.0,2.0,92,0.00,,,0.00,Wunderground v.1.15,2013-01-07 09:29:00,
2013-01-07 04:34:00,22.3,20.1,30.03,NNW,338,3.0,5.0,91,0.00,,,0.00,Wunderground v.1.15,2013-01-07 09:34:00,
2013-01-07 04:39:00,22.0,19.8,30.03,NNW,344,0.0,2.0,91,0.00,,,0.00,Wunderground v.1.15,2013-01-07 09:39:00,
2013-01-07 04:44:00,21.7,19.5,30.04,WNW,301,2.0,6.0,91,0.00,,,0.00,Wunderground v.1.15,2013-01-07 09:44:00,
2013-01-07 04:49:00,21.4,19.2,30.04,WNW,302,1.0,3.0,91,0.00,,,0.00,Wunderground v.1.15,2013-01-07 09:49:00,
2013-01-07 04:54:00,20.6,18.1,30.05,NNW,346,1.0,3.0,90,0.00,,,0.00,Wunderground v.1.15,2013-01-07 09:54:00,
2013-01-07 04:59:00,19.9,17.4,30.05,WNW,299,3.0,3.0,90,0.00,,,0.00,Wunderground v.1.15,2013-01-07 09:59:00,
2013-01-07 05:04:00,19.5,17.3,30.05,WNW,299,0.0,2.0,91,0.00,,,0.00,Wunderground v.1.15,2013-01-07 10:04:00,
2013-01-07 05:09:00,19.3,17.4,30.06,WNW,297,0.0,2.0,92,0.00,,,0.00,Wunderground v.1.15,2013-01-07 10:09:00,
2013-01-07 05:14:00,19.2,17.3,30.06,WNW,299,3.0,6.0,92,0.00,,,0.00,Wunderground v.1.15,2013-01-07 10:14:00,
2013-01-07 05:19:00,19.0,17.1,30.06,NNW,328,3.0,5.0,92,0.00,,,0.00,Wunderground v.1.15,2013-01-07 10:19:00,
2013-01-07 05:25:00,18.8,16.9,30.07,NNW,339,6.0,6.0,92,0.00,,,0.00,Wunderground v.1.15,2013-01-07 10:25:00,
2013-01-07 05:30:00,18.5,16.6,30.07,NW,307,3.0,6.0,92,0.00,,,0.00,Wunderground v.1.15,2013-01-07 10:30:00,
2013-01-07 05:35:00,18.3,16.4,30.08,NW,323,8.0,8.0,92,0.00,,,0.00,Wunderground v.1.15,2013-01-07 10:35:00,
2013-01-07 05:40:00,18.1,16.2,30.09,NW,318,3.0,7.0,92,0.00,,,0.00,Wunderground v.1.15,2013-01-07 10:40:00,
2013-01-07 05:45:00,17.9,16.0,30.09,WNW,288,4.0,7.0,92,0.00,,,0.00,Wunderground v.1.15,2013-01-07 10:45:00,
2013-01-07 05:50:00,17.8,15.9,30.09,NW,321,3.0,7.0,92,0.00,,,0.00,Wunderground v.1.15,2013-01-07 10:50:00,
2013-01-07 05:55:00,17.7,15.8,30.09,WNW,303,4.0,7.0,92,0.00,,,0.00,Wunderground v.1.15,2013-01-07 10:55:00,
2013-01-07 06:00:00,17.7,15.8,30.09,NW,304,2.0,2.0,92,0.00,,,0.00,Wunderground v.1.15,2013-01-07 11:00:00,
2013-01-07 06:05:00,17.4,15.5,30.10,WNW,290,1.0,5.0,92,0.00,,,0.00,Wunderground v.1.15,2013-01-07 11:05:00,
2013-01-07 06:10:00,17.0,14.8,30.10,NW,319,3.0,3.0,91,0.00,,,0.00,Wunderground v.1.15,2013-01-07 11:10:00,
2013-01-07 06:15:00,16.7,14.5,30.11,NW,306,2.0,4.0,91,0.00,,,0.00,Wunderground v.1.15,2013-01-07 11:15:00,
2013-01-07 06:20:00,16.4,14.2,30.11,West,265,1.0,5.0,91,0.00,,,0.00,Wunderground v.1.15,2013-01-07 11:20:00,
2013-01-07 06:25:00,16.2,14.3,30.10,NW,311,2.0,5.0,92,0.00,,,0.00,Wunderground v.1.15,2013-01-07 11:25:00,
2013-01-07 06:30:00,16.0,14.1,30.11,WNW,301,4.0,4.0,92,0.00,,,0.00,Wunderground v.1.15,2013-01-07 11:30:00,
2013-01-07 06:35:00,15.7,13.8,30.12,NW,315,1.0,5.0,92,0.00,,,0.00,Wunderground v.1.15,2013-01-07 11:35:00,
2013-01-07 06:40:00,15.3,13.1,30.12,NW,311,2.0,2.0,91,0.00,,,0.00,Wunderground v.1.15,2013-01-07 11:40:00,
2013-01-07 06:45:00,15.0,13.1,30.13,NW,316,0.0,3.0,92,0.00,,,0.00,Wunderground v.1.15,2013-01-07 11:45:00,
2013-01-07 06:50:00,15.1,13.2,30.13,WSW,257,1.0,5.0,92,0.00,,,0.00,Wunderground v.1.15,2013-01-07 11:50:00,
2013-01-07 06:55:00,15.2,13.3,30.13,WNW,302,1.0,5.0,92,0.00,,,0.00,Wunderground v.1.15,2013-01-07 11:55:00,
2013-01-07 07:00:00,15.3,13.4,30.14,NNE,29,0.0,1.0,92,0.00,,,0.00,Wunderground v.1.15,2013-01-07 12:00:00,
2013-01-07 07:05:00,15.4,13.5,30.14,WNW,286,0.0,2.0,92,0.00,,,0.00,Wunderground v.1.15,2013-01-07 12:05:00,
2013-01-07 07:10:00,15.4,13.5,30.14,WNW,298,1.0,5.0,92,0.00,,,0.00,Wunderground v.1.15,2013-01-07 12:10:00,
2013-01-07 07:15:00,15.3,13.1,30.15,WNW,298,0.0,5.0,91,0.00,,,0.00,Wunderground v.1.15,2013-01-07 12:15:00,
2013-01-07 07:20:00,15.2,13.0,30.15,NW,320,2.0,2.0,91,0.00,,,0.00,Wunderground v.1.15,2013-01-07 12:20:00,
2013-01-07 07:25:00,15.1,12.9,30.16,WSW,238,0.0,3.0,91,0.00,,,0.00,Wunderground v.1.15,2013-01-07 12:25:00,
2013-01-07 07:30:00,15.0,12.8,30.16,NW,309,0.0,1.0,91,0.00,,,0.00,Wunderground v.1.15,2013-01-07 12:30:00,
2013-01-07 07:35:00,15.0,12.8,30.16,NW,309,0.0,1.0,91,0.00,,,0.00,Wunderground v.1.15,2013-01-07 12:35:00,
2013-01-07 07:41:00,14.9,12.7,30.16,West,267,1.0,1.0,91,0.00,,,0.00,Wunderground v.1.15,2013-01-07 12:41:00,
2013-01-07 07:46:00,14.8,12.6,30.16,WSW,239,1.0,3.0,91,0.00,,,0.00,Wunderground v.1.15,2013-01-07 12:46:00,
2013-01-07 07:51:00,14.7,12.6,30.16,WNW,286,0.0,2.0,91,0.00,,,0.00,Wunderground v.1.15,2013-01-07 12:51:00,
2013-01-07 07:56:00,14.7,12.6,30.17,ESE,114,0.0,2.0,91,0.00,,,0.00,Wunderground v.1.15,2013-01-07 12:56:00,
2013-01-07 08:01:00,14.8,12.9,30.17,WNW,291,0.0,0.0,92,0.00,,,0.00,Wunderground v.1.15,2013-01-07 13:01:00,
2013-01-07 08:06:00,15.0,13.1,30.18,West,261,0.0,0.0,92,0.00,,,0.00,Wunderground v.1.15,2013-01-07 13:06:00,
2013-01-07 08:11:00,15.2,13.3,30.18,NW,316,3.0,3.0,92,0.00,,,0.00,Wunderground v.1.15,2013-01-07 13:11:00,
2013-01-07 08:16:00,15.6,13.4,30.19,NW,307,1.0,8.0,91,0.00,,,0.00,Wunderground v.1.15,2013-01-07 13:16:00,
2013-01-07 08:21:00,15.9,13.5,30.19,SSW,213,3.0,12.0,90,0.00,,,0.00,Wunderground v.1.15,2013-01-07 13:21:00,
2013-01-07 08:26:00,16.0,13.6,30.20,WNW,294,4.0,12.0,90,0.00,,,0.00,Wunderground v.1.15,2013-01-07 13:26:00,
2013-01-07 08:31:00,16.1,13.7,30.20,West,263,9.0,10.0,90,0.00,,,0.00,Wunderground v.1.15,2013-01-07 13:31:00,
2013-01-07 08:36:00,16.2,13.5,30.21,NW,313,3.0,10.0,89,0.00,,,0.00,Wunderground v.1.15,2013-01-07 13:36:00,
2013-01-07 08:41:00,16.2,13.5,30.21,WSW,238,1.0,9.0,89,0.00,,,0.00,Wunderground v.1.15,2013-01-07 13:41:00,
2013-01-07 08:46:00,16.2,13.5,30.21,NW,304,4.0,10.0,89,0.00,,,0.00,Wunderground v.1.15,2013-01-07 13:46:00,
2013-01-07 08:51:00,16.4,13.7,30.22,WNW,284,1.0,8.0,89,0.00,,,0.00,Wunderground v.1.15,2013-01-07 13:51:00,
2013-01-07 08:56:00,16.6,13.7,30.22,WNW,294,3.0,8.0,88,0.00,,,0.00,Wunderground v.1.15,2013-01-07 13:56:00,
2013-01-07 09:01:00,16.8,13.9,30.23,WNW,300,4.0,4.0,88,0.00,,,0.00,Wunderground v.1.15,2013-01-07 14:01:00,
2013-01-07 09:06:00,17.3,14.1,30.23,West,281,3.0,6.0,87,0.00,,,0.00,Wunderground v.1.15,2013-01-07 14:06:00,
2013-01-07 09:11:00,17.5,14.0,30.24,WNW,302,3.0,12.0,86,0.00,,,0.00,Wunderground v.1.15,2013-01-07 14:11:00,
2013-01-07 09:16:00,18.1,14.4,30.24,WNW,292,2.0,12.0,85,0.00,,,0.00,Wunderground v.1.15,2013-01-07 14:16:00,
2013-01-07 09:21:00,18.3,14.5,30.24,WNW,283,9.0,9.0,85,0.00,,,0.00,Wunderground v.1.15,2013-01-07 14:21:00,
2013-01-07 09:26:00,18.3,14.3,30.25,WNW,299,5.0,11.0,84,0.00,,,0.00,Wunderground v.1.15,2013-01-07 14:26:00,
2013-01-07 09:31:00,18.4,14.4,30.25,NW,309,4.0,8.0,84,0.00,,,0.00,Wunderground v.1.15,2013-01-07 14:31:00,
2013-01-07 09:36:00,18.4,14.1,30.25,West,271,5.0,11.0,83,0.00,,,0.00,Wunderground v.1.15,2013-01-07 14:36:00,
2013-01-07 09:41:00,18.5,14.2,30.25,NW,309,4.0,7.0,83,0.00,,,0.00,Wunderground v.1.15,2013-01-07 14:41:00,
2013-01-07 09:46:00,18.6,14.3,30.25,NNW,342,3.0,11.0,83,0.00,,,0.00,Wunderground v.1.15,2013-01-07 14:46:00,
2013-01-07 09:51:00,18.9,14.3,30.26,WSW,252,2.0,8.0,82,0.00,,,0.00,Wunderground v.1.15,2013-01-07 14:51:00,
2013-01-07 09:56:00,18.7,14.1,30.26,WNW,291,7.0,11.0,82,0.00,,,0.00,Wunderground v.1.15,2013-01-07 14:56:00,
2013-01-07 10:01:00,18.6,14.0,30.26,West,259,6.0,8.0,82,0.00,,,0.00,Wunderground v.1.15,2013-01-07 15:01:00,
2013-01-07 10:06:00,18.6,14.0,30.26,West,276,6.0,13.0,82,0.00,,,0.00,Wunderground v.1.15,2013-01-07 15:06:00,
2013-01-07 10:11:00,18.8,14.2,30.26,West,269,9.0,11.0,82,0.00,,,0.00,Wunderground v.1.15,2013-01-07 15:11:00,
2013-01-07 10:16:00,18.8,13.9,30.27,NW,309,6.0,11.0,81,0.00,,,0.00,Wunderground v.1.15,2013-01-07 15:16:00,
2013-01-07 10:21:00,18.8,13.9,30.27,WNW,291,5.0,12.0,81,0.00,,,0.00,Wunderground v.1.15,2013-01-07 15:21:00,
2013-01-07 10:26:00,18.9,14.0,30.26,WSW,251,8.0,12.0,81,0.00,,,0.00,Wunderground v.1.15,2013-01-07 15:26:00,
2013-01-07 10:31:00,19.2,14.3,30.26,West,276,2.0,8.0,81,0.00,,,0.00,Wunderground v.1.15,2013-01-07 15:31:00,
2013-01-07 10:36:00,19.1,13.9,30.26,NW,312,6.0,10.0,80,0.00,,,0.00,Wunderground v.1.15,2013-01-07 15:36:00,
2013-01-07 10:41:00,19.3,14.4,30.26,WSW,257,5.0,6.0,81,0.00,,,0.00,Wunderground v.1.15,2013-01-07 15:41:00,
2013-01-07 10:46:00,19.5,14.3,30.26,West,281,1.0,12.0,80,0.00,,,0.00,Wunderground v.1.15,2013-01-07 15:46:00,
2013-01-07 10:51:00,19.5,14.0,30.26,NW,309,6.0,9.0,79,0.00,,,0.00,Wunderground v.1.15,2013-01-07 15:51:00,
2013-01-07 10:56:00,19.3,13.9,30.26,WNW,299,4.0,10.0,79,0.00,,,0.00,Wunderground v.1.15,2013-01-07 15:56:00,
2013-01-07 11:01:00,19.4,13.9,30.26,NW,322,7.0,9.0,79,0.00,,,0.00,Wunderground v.1.15,2013-01-07 16:01:00,
2013-01-07 11:06:00,19.2,13.8,30.26,NW,304,3.0,10.0,79,0.00,,,0.00,Wunderground v.1.15,2013-01-07 16:06:00,
2013-01-07 11:11:00,19.1,13.7,30.26,NW,310,9.0,12.0,79,0.00,,,0.00,Wunderground v.1.15,2013-01-07 16:11:00,
2013-01-07 11:16:00,19.4,13.9,30.26,West,280,3.0,12.0,79,0.00,,,0.00,Wunderground v.1.15,2013-01-07 16:16:00,
2013-01-07 11:21:00,19.4,13.9,30.26,West,261,3.0,14.0,79,0.00,,,0.00,Wunderground v.1.15,2013-01-07 16:21:00,
2013-01-07 11:26:00,19.3,13.6,30.26,NW,310,5.0,14.0,78,0.00,,,0.00,Wunderground v.1.15,2013-01-07 16:26:00,
2013-01-07 11:31:00,19.4,13.7,30.26,NW,318,3.0,9.0,78,0.00,,,0.00,Wunderground v.1.15,2013-01-07 16:31:00,
2013-01-07 11:36:00,19.4,13.7,30.26,WNW,288,5.0,10.0,78,0.00,,,0.00,Wunderground v.1.15,2013-01-07 16:36:00,
2013-01-07 11:41:00,19.7,14.0,30.27,NW,308,5.0,8.0,78,0.00,,,0.00,Wunderground v.1.15,2013-01-07 16:41:00,
2013-01-07 11:46:00,19.5,13.8,30.27,NW,315,9.0,12.0,78,0.00,,,0.00,Wunderground v.1.15,2013-01-07 16:46:00,
2013-01-07 11:51:00,19.6,13.9,30.27,NW,308,6.0,10.0,78,0.00,,,0.00,Wunderground v.1.15,2013-01-07 16:51:00,
2013-01-07 11:57:00,19.9,14.1,30.27,North,350,3.0,10.0,78,0.00,,,0.00,Wunderground v.1.15,2013-01-07 16:57:00,
2013-01-07 12:02:00,20.3,14.2,30.27,WNW,284,3.0,8.0,77,0.00,,,0.00,Wunderground v.1.15,2013-01-07 17:02:00,
2013-01-07 12:07:00,20.1,13.7,30.27,NW,311,2.0,10.0,76,0.00,,,0.00,Wunderground v.1.15,2013-01-07 17:07:00,
2013-01-07 12:12:00,20.0,13.6,30.27,WNW,298,4.0,10.0,76,0.00,,,0.00,Wunderground v.1.15,2013-01-07 17:12:00,
2013-01-07 12:17:00,20.0,13.9,30.27,South,172,2.0,11.0,77,0.00,,,0.00,Wunderground v.1.15,2013-01-07 17:17:00,
2013-01-07 12:22:00,19.5,13.5,30.27,West,264,5.0,10.0,77,0.00,,,0.00,Wunderground v.1.15,2013-01-07 17:22:00,
2013-01-07 12:27:00,19.5,13.5,30.27,North,350,2.0,10.0,77,0.00,,,0.00,Wunderground v.1.15,2013-01-07 17:27:00,
2013-01-07 12:32:00,19.8,14.0,30.27,SW,228,3.0,6.0,78,0.00,,,0.00,Wunderground v.1.15,2013-01-07 17:32:00,
2013-01-07 12:37:00,20.1,14.0,30.27,WSW,250,3.0,7.0,77,0.00,,,0.00,Wunderground v.1.15,2013-01-07 17:37:00,
2013-01-07 12:42:00,20.1,14.0,30.27,West,270,5.0,9.0,77,0.00,,,0.00,Wunderground v.1.15,2013-01-07 17:42:00,
2013-01-07 12:47:00,20.0,13.6,30.27,West,266,4.0,9.0,76,0.00,,,0.00,Wunderground v.1.15,2013-01-07 17:47:00,
2013-01-07 12:52:00,19.7,13.7,30.27,NW,318,2.0,7.0,77,0.00,,,0.00,Wunderground v.1.15,2013-01-07 17:52:00,
2013-01-07 12:57:00,20.0,13.9,30.27,West,277,1.0,7.0,77,0.00,,,0.00,Wunderground v.1.15,2013-01-07 17:57:00,
2013-01-07 13:02:00,20.3,13.9,30.27,WNW,303,4.0,7.0,76,0.00,,,0.00,Wunderground v.1.15,2013-01-07 18:02:00,
2013-01-07 13:07:00,20.6,14.2,30.28,NW,322,3.0,8.0,76,0.00,,,0.00,Wunderground v.1.15,2013-01-07 18:07:00,
2013-01-07 13:12:00,20.5,13.8,30.28,West,277,7.0,8.0,75,0.00,,,0.00,Wunderground v.1.15,2013-01-07 18:12:00,
2013-01-07 13:17:00,20.6,14.2,30.28,NW,319,0.0,8.0,76,0.00,,,0.00,Wunderground v.1.15,2013-01-07 18:17:00,
2013-01-07 13:22:00,21.2,14.8,30.28,WNW,291,2.0,5.0,76,0.00,,,0.00,Wunderground v.1.15,2013-01-07 18:22:00,
2013-01-07 13:28:00,21.8,15.1,30.28,WNW,283,1.0,6.0,75,0.00,,,0.00,Wunderground v.1.15,2013-01-07 18:28:00,
2013-01-07 13:33:00,22.1,14.8,30.29,South,179,2.0,6.0,73,0.00,,,0.00,Wunderground v.1.15,2013-01-07 18:33:00,
2013-01-07 13:38:00,21.9,14.3,30.29,NW,322,2.0,7.0,72,0.00,,,0.00,Wunderground v.1.15,2013-01-07 18:38:00,
2013-01-07 13:43:00,21.7,14.4,30.29,SW,235,3.0,6.0,73,0.00,,,0.00,Wunderground v.1.15,2013-01-07 18:43:00,
2013-01-07 13:48:00,22.4,14.7,30.29,WNW,285,0.0,6.0,72,0.00,,,0.00,Wunderground v.1.15,2013-01-07 18:48:00,
2013-01-07 13:53:00,22.0,14.0,30.29,SSW,208,4.0,4.0,71,0.00,,,0.00,Wunderground v.1.15,2013-01-07 18:53:00,
2013-01-07 13:58:00,22.2,14.2,30.29,NW,314,5.0,5.0,71,0.00,,,0.00,Wunderground v.1.15,2013-01-07 18:58:00,
2013-01-07 14:04:00,22.0,14.3,30.29,SW,226,5.0,5.0,72,0.00,,,0.00,Wunderground v.1.15,2013-01-07 19:04:00,
2013-01-07 14:09:00,22.5,14.5,30.29,WNW,287,1.0,2.0,71,0.00,,,0.00,Wunderground v.1.15,2013-01-07 19:09:00,
2013-01-07 14:14:00,22.7,14.7,30.28,West,269,1.0,2.0,71,0.00,,,0.00,Wunderground v.1.15,2013-01-07 19:14:00,
2013-01-07 14:19:00,22.9,14.6,30.28,NW,316,0.0,1.0,70,0.00,,,0.00,Wunderground v.1.15,2013-01-07 19:19:00,
2013-01-07 14:24:00,23.4,14.7,30.28,South,186,2.0,4.0,69,0.00,,,0.00,Wunderground v.1.15,2013-01-07 19:24:00,
2013-01-07 14:29:00,23.3,14.3,30.28,NW,311,2.0,3.0,68,0.00,,,0.00,Wunderground v.1.15,2013-01-07 19:29:00,
2013-01-07 14:34:00,23.0,14.7,30.28,WSW,257,0.0,3.0,70,0.00,,,0.00,Wunderground v.1.15,2013-01-07 19:34:00,
2013-01-07 14:39:00,23.6,14.9,30.28,South,177,1.0,1.0,69,0.00,,,0.00,Wunderground v.1.15,2013-01-07 19:39:00,
2013-01-07 14:44:00,24.0,15.3,30.29,NNW,332,0.0,2.0,69,0.00,,,0.00,Wunderground v.1.15,2013-01-07 19:44:00,
2013-01-07 14:49:00,23.9,14.9,30.29,NW,308,0.0,1.0,68,0.00,,,0.00,Wunderground v.1.15,2013-01-07 19:49:00,
2013-01-07 14:54:00,23.8,15.1,30.30,SW,231,1.0,4.0,69,0.00,,,0.00,Wunderground v.1.15,2013-01-07 19:54:00,
2013-01-07 14:59:00,23.9,15.2,30.30,NNW,339,1.0,1.0,69,0.00,,,0.00,Wunderground v.1.15,2013-01-07 19:59:00,
2013-01-07 15:04:00,23.4,14.4,30.30,NW,318,4.0,6.0,68,0.00,,,0.00,Wunderground v.1.15,2013-01-07 20:04:00,
2013-01-07 15:09:00,22.9,14.2,30.30,WNW,298,2.0,2.0,69,0.00,,,0.00,Wunderground v.1.15,2013-01-07 20:09:00,
2013-01-07 15:14:00,22.8,14.5,30.30,WNW,291,2.0,3.0,70,0.00,,,0.00,Wunderground v.1.15,2013-01-07 20:14:00,
2013-01-07 15:19:00,22.6,14.3,30.30,WNW,298,1.0,2.0,70,0.00,,,0.00,Wunderground v.1.15,2013-01-07 20:19:00,
2013-01-07 15:24:00,22.7,14.4,30.30,WNW,302,5.0,6.0,70,0.00,,,0.00,Wunderground v.1.15,2013-01-07 20:24:00,
2013-01-07 15:29:00,22.7,14.4,30.31,WNW,301,1.0,2.0,70,0.00,,,0.00,Wunderground v.1.15,2013-01-07 20:29:00,
2013-01-07 15:34:00,23.0,14.3,30.31,WNW,301,0.0,2.0,69,0.00,,,0.00,Wunderground v.1.15,2013-01-07 20:34:00,
2013-01-07 15:39:00,22.8,14.1,30.31,West,266,2.0,2.0,69,0.00,,,0.00,Wunderground v.1.15,2013-01-07 20:39:00,
2013-01-07 15:44:00,22.7,14.1,30.31,NW,316,4.0,4.0,69,0.00,,,0.00,Wunderground v.1.15,2013-01-07 20:44:00,
2013-01-07 15:49:00,22.5,14.2,30.31,NW,323,0.0,2.0,70,0.00,,,0.00,Wunderground v.1.15,2013-01-07 20:49:00,
2013-01-07 15:54:00,22.5,14.5,30.31,NW,316,3.0,3.0,71,0.00,,,0.00,Wunderground v.1.15,2013-01-07 20:54:00,
2013-01-07 15:59:00,22.4,14.4,30.31,NW,319,1.0,2.0,71,0.00,,,0.00,Wunderground v.1.15,2013-01-07 20:59:00,
2013-01-07 16:04:00,22.3,14.6,30.31,WNW,301,0.0,2.0,72,0.00,,,0.00,Wunderground v.1.15,2013-01-07 21:04:00,
2013-01-07 16:09:00,22.7,14.7,30.30,WNW,301,0.0,0.0,71,0.00,,,0.00,Wunderground v.1.15,2013-01-07 21:09:00,
2013-01-07 16:14:00,22.6,14.6,30.30,WNW,301,0.0,0.0,71,0.00,,,0.00,Wunderground v.1.15,2013-01-07 21:14:00,
2013-01-07 16:19:00,21.5,14.5,30.30,NE,41,0.0,0.0,74,0.00,,,0.00,Wunderground v.1.15,2013-01-07 21:19:00,
2013-01-07 16:24:00,20.1,14.0,30.31,NE,41,0.0,0.0,77,0.00,,,0.00,Wunderground v.1.15,2013-01-07 21:24:00,
2013-01-07 16:29:00,19.1,13.9,30.30,NE,43,0.0,0.0,80,0.00,,,0.00,Wunderground v.1.15,2013-01-07 21:29:00,
2013-01-07 16:34:00,18.1,13.5,30.30,NE,41,0.0,0.0,82,0.00,,,0.00,Wunderground v.1.15,2013-01-07 21:34:00,
2013-01-07 16:39:00,17.4,13.1,30.30,NE,43,0.0,0.0,83,0.00,,,0.00,Wunderground v.1.15,2013-01-07 21:39:00,
2013-01-07 16:44:00,16.6,12.6,30.31,NE,41,0.0,0.0,84,0.00,,,0.00,Wunderground v.1.15,2013-01-07 21:44:00,
2013-01-07 16:49:00,15.8,12.1,30.31,ESE,109,1.0,1.0,85,0.00,,,0.00,Wunderground v.1.15,2013-01-07 21:49:00,
2013-01-07 16:54:00,15.2,11.8,30.31,ESE,108,0.0,1.0,86,0.00,,,0.00,Wunderground v.1.15,2013-01-07 21:54:00,
2013-01-07 16:59:00,14.6,11.2,30.31,ESE,108,0.0,0.0,86,0.00,,,0.00,Wunderground v.1.15,2013-01-07 21:59:00,
2013-01-07 17:04:00,14.0,10.8,30.31,ESE,109,0.0,0.0,87,0.00,,,0.00,Wunderground v.1.15,2013-01-07 22:04:00,
2013-01-07 17:09:00,13.9,11.0,30.31,ESE,108,1.0,2.0,88,0.00,,,0.00,Wunderground v.1.15,2013-01-07 22:09:00,
2013-01-07 17:14:00,13.7,10.8,30.31,ESE,105,0.0,2.0,88,0.00,,,0.00,Wunderground v.1.15,2013-01-07 22:14:00,
2013-01-07 17:19:00,13.4,10.5,30.31,ESE,104,0.0,0.0,88,0.00,,,0.00,Wunderground v.1.15,2013-01-07 22:19:00,
2013-01-07 17:24:00,12.9,10.3,30.31,East,100,2.0,2.0,89,0.00,,,0.00,Wunderground v.1.15,2013-01-07 22:24:00,
2013-01-07 17:29:00,12.7,10.1,30.31,East,97,1.0,1.0,89,0.00,,,0.00,Wunderground v.1.15,2013-01-07 22:29:00,
2013-01-07 17:34:00,12.4,9.8,30.31,East,100,1.0,2.0,89,0.00,,,0.00,Wunderground v.1.15,2013-01-07 22:34:00,
2013-01-07 17:39:00,12.2,9.6,30.31,East,93,1.0,2.0,89,0.00,,,0.00,Wunderground v.1.15,2013-01-07 22:39:00,
2013-01-07 17:44:00,11.8,9.2,30.31,East,93,1.0,2.0,89,0.00,,,0.00,Wunderground v.1.15,2013-01-07 22:44:00,
2013-01-07 17:49:00,11.5,8.9,30.31,ESE,103,0.0,0.0,89,0.00,,,0.00,Wunderground v.1.15,2013-01-07 22:49:00,
2013-01-07 17:54:00,11.1,8.5,30.31,ESE,105,0.0,2.0,89,0.00,,,0.00,Wunderground v.1.15,2013-01-07 22:54:00,
2013-01-07 17:59:00,11.0,8.6,30.31,East,93,1.0,2.0,90,0.00,,,0.00,Wunderground v.1.15,2013-01-07 22:59:00,
2013-01-07 18:05:00,11.0,8.6,30.31,East,91,0.0,4.0,90,0.00,,,0.00,Wunderground v.1.15,2013-01-07 23:05:00,
2013-01-07 18:10:00,10.8,8.4,30.31,East,92,0.0,2.0,90,0.00,,,0.00,Wunderground v.1.15,2013-01-07 23:10:00,
2013-01-07 18:15:00,10.4,7.8,30.31,East,91,0.0,2.0,89,0.00,,,0.00,Wunderground v.1.15,2013-01-07 23:15:00,
2013-01-07 18:20:00,10.0,7.7,30.31,East,96,1.0,3.0,90,0.00,,,0.00,Wunderground v.1.15,2013-01-07 23:20:00,
2013-01-07 18:25:00,10.0,7.7,30.31,East,96,1.0,3.0,90,0.00,,,0.00,Wunderground v.1.15,2013-01-07 23:25:00,
2013-01-07 18:30:00,9.6,7.3,30.30,East,88,0.0,1.0,90,0.00,,,0.00,Wunderground v.1.15,2013-01-07 23:30:00,
2013-01-07 18:35:00,9.5,7.4,30.30,East,92,1.0,2.0,91,0.00,,,0.00,Wunderground v.1.15,2013-01-07 23:35:00,
2013-01-07 18:40:00,9.7,7.6,30.31,East,84,0.0,1.0,91,0.00,,,0.00,Wunderground v.1.15,2013-01-07 23:40:00,
2013-01-07 18:45:00,9.5,7.2,30.31,East,91,1.0,1.0,90,0.00,,,0.00,Wunderground v.1.15,2013-01-07 23:45:00,
2013-01-07 18:50:00,9.2,6.9,30.30,East,84,1.0,2.0,90,0.00,,,0.00,Wunderground v.1.15,2013-01-07 23:50:00,
2013-01-07 18:55:00,8.9,6.6,30.30,East,86,0.0,2.0,90,0.00,,,0.00,Wunderground v.1.15,2013-01-07 23:55:00,
2013-01-07 19:00:00,8.7,6.4,30.30,East,92,2.0,2.0,90,0.00,,,0.00,Wunderground v.1.15,2013-01-08 00:00:00,
2013-01-07 19:05:00,8.8,6.7,30.30,East,80,0.0,2.0,91,0.00,,,0.00,Wunderground v.1.15,2013-01-08 00:05:00,
2013-01-07 19:10:00,8.8,6.7,30.30,East,88,1.0,2.0,91,0.00,,,0.00,Wunderground v.1.15,2013-01-08 00:10:00,
2013-01-07 19:15:00,8.7,6.6,30.29,East,88,0.0,2.0,91,0.00,,,0.00,Wunderground v.1.15,2013-01-08 00:15:00,
2013-01-07 19:20:00,8.3,6.0,30.29,East,88,0.0,0.0,90,0.00,,,0.00,Wunderground v.1.15,2013-01-08 00:20:00,
2013-01-07 19:25:00,8.0,5.7,30.29,East,88,0.0,1.0,90,0.00,,,0.00,Wunderground v.1.15,2013-01-08 00:25:00,
2013-01-07 19:30:00,7.9,5.8,30.29,East,88,0.0,1.0,91,0.00,,,0.00,Wunderground v.1.15,2013-01-08 00:30:00,
2013-01-07 19:35:00,7.8,5.7,30.29,East,88,0.0,1.0,91,0.00,,,0.00,Wunderground v.1.15,2013-01-08 00:35:00,
2013-01-07 19:40:00,7.6,5.5,30.29,East,84,0.0,1.0,91,0.00,,,0.00,Wunderground v.1.15,2013-01-08 00:40:00,
2013-01-07 19:45:00,7.8,5.7,30.29,East,93,0.0,2.0,91,0.00,,,0.00,Wunderground v.1.15,2013-01-08 00:45:00,
2013-01-07 19:50:00,7.5,5.4,30.30,East,93,0.0,1.0,91,0.00,,,0.00,Wunderground v.1.15,2013-01-08 00:50:00,
2013-01-07 19:55:00,7.2,5.1,30.30,East,93,0.0,1.0,91,0.00,,,0.00,Wunderground v.1.15,2013-01-08 00:55:00,
2013-01-07 20:00:00,7.1,5.0,30.30,East,93,0.0,0.0,91,0.00,,,0.00,Wunderground v.1.15,2013-01-08 01:00:00,
2013-01-07 20:05:00,6.9,4.8,30.30,East,94,0.0,0.0,91,0.00,,,0.00,Wunderground v.1.15,2013-01-08 01:05:00,
2013-01-07 20:10:00,6.6,4.5,30.30,East,95,0.0,0.0,91,0.00,,,0.00,Wunderground v.1.15,2013-01-08 01:10:00,
2013-01-07 20:15:00,6.3,4.0,30.30,East,95,0.0,0.0,90,0.00,,,0.00,Wunderground v.1.15,2013-01-08 01:15:00,
2013-01-07 20:20:00,6.3,4.2,30.30,East,97,0.0,2.0,91,0.00,,,0.00,Wunderground v.1.15,2013-01-08 01:20:00,
2013-01-07 20:25:00,6.2,3.9,30.30,ESE,104,0.0,2.0,90,0.00,,,0.00,Wunderground v.1.15,2013-01-08 01:25:00,
2013-01-07 20:30:00,6.1,3.8,30.29,ESE,103,0.0,1.0,90,0.00,,,0.00,Wunderground v.1.15,2013-01-08 01:30:00,
2013-01-07 20:35:00,6.0,3.9,30.29,ESE,103,0.0,1.0,91,0.00,,,0.00,Wunderground v.1.15,2013-01-08 01:35:00,
2013-01-07 20:40:00,6.1,4.0,30.29,ESE,105,1.0,2.0,91,0.00,,,0.00,Wunderground v.1.15,2013-01-08 01:40:00,
2013-01-07 20:45:00,6.1,4.0,30.29,East,84,2.0,2.0,91,0.00,,,0.00,Wunderground v.1.15,2013-01-08 01:45:00,
2013-01-07 20:51:00,6.1,3.8,30.29,ENE,77,1.0,2.0,90,0.00,,,0.00,Wunderground v.1.15,2013-01-08 01:51:00,
2013-01-07 20:56:00,5.9,3.6,30.29,ENE,78,0.0,2.0,90,0.00,,,0.00,Wunderground v.1.15,2013-01-08 01:56:00,
2013-01-07 21:01:00,5.9,3.6,30.29,East,100,1.0,1.0,90,0.00,,,0.00,Wunderground v.1.15,2013-01-08 02:01:00,
2013-01-07 21:06:00,5.8,3.5,30.29,NE,44,1.0,2.0,90,0.00,,,0.00,Wunderground v.1.15,2013-01-08 02:06:00,
2013-01-07 21:11:00,5.8,3.7,30.29,West,277,0.0,1.0,91,0.00,,,0.00,Wunderground v.1.15,2013-01-08 02:11:00,
2013-01-07 21:16:00,6.3,4.5,30.29,North,10,1.0,1.0,92,0.00,,,0.00,Wunderground v.1.15,2013-01-08 02:16:00,
2013-01-07 21:21:00,6.5,4.7,30.29,NE,43,1.0,1.0,92,0.00,,,0.00,Wunderground v.1.15,2013-01-08 02:21:00,
2013-01-07 21:26:00,6.1,3.8,30.29,NE,46,0.0,1.0,90,0.00,,,0.00,Wunderground v.1.15,2013-01-08 02:26:00,
2013-01-07 21:31:00,5.8,3.5,30.29,ENE,71,1.0,2.0,90,0.00,,,0.00,Wunderground v.1.15,2013-01-08 02:31:00,
2013-01-07 21:36:00,5.6,3.3,30.29,ENE,71,0.0,2.0,90,0.00,,,0.00,Wunderground v.1.15,2013-01-08 02:36:00,
2013-01-07 21:41:00,5.8,3.7,30.29,East,86,2.0,2.0,91,0.00,,,0.00,Wunderground v.1.15,2013-01-08 02:41:00,
2013-01-07 21:46:00,6.1,4.0,30.29,East,84,0.0,2.0,91,0.00,,,0.00,Wunderground v.1.15,2013-01-08 02:46:00,
2013-01-07 21:51:00,6.1,4.0,30.29,East,84,0.0,1.0,91,0.00,,,0.00,Wunderground v.1.15,2013-01-08 02:51:00,
2013-01-07 21:56:00,5.9,3.6,30.29,East,85,0.0,1.0,90,0.00,,,0.00,Wunderground v.1.15,2013-01-08 02:56:00,
2013-01-07 22:01:00,5.6,3.3,30.29,East,90,0.0,1.0,90,0.00,,,0.00,Wunderground v.1.15,2013-01-08 03:01:00,
2013-01-07 22:06:00,5.5,3.2,30.29,East,82,0.0,1.0,90,0.00,,,0.00,Wunderground v.1.15,2013-01-08 03:06:00,
2013-01-07 22:11:00,5.7,3.6,30.29,ENE,76,0.0,2.0,91,0.00,,,0.00,Wunderground v.1.15,2013-01-08 03:11:00,
2013-01-07 22:16:00,5.8,3.7,30.29,ENE,76,0.0,2.0,91,0.00,,,0.00,Wunderground v.1.15,2013-01-08 03:16:00,
2013-01-07 22:21:00,5.9,3.8,30.29,ENE,76,0.0,0.0,91,0.00,,,0.00,Wunderground v.1.15,2013-01-08 03:21:00,
2013-01-07 22:26:00,5.7,3.4,30.29,East,98,0.0,0.0,90,0.00,,,0.00,Wunderground v.1.15,2013-01-08 03:26:00,
2013-01-07 22:31:00,5.4,3.1,30.29,East,98,0.0,1.0,90,0.00,,,0.00,Wunderground v.1.15,2013-01-08 03:31:00,
2013-01-07 22:36:00,5.4,3.1,30.29,East,92,1.0,2.0,90,0.00,,,0.00,Wunderground v.1.15,2013-01-08 03:36:00,
2013-01-07 22:41:00,5.7,3.6,30.29,East,90,0.0,1.0,91,0.00,,,0.00,Wunderground v.1.15,2013-01-08 03:41:00,
2013-01-07 22:46:00,5.9,3.8,30.29,East,88,0.0,2.0,91,0.00,,,0.00,Wunderground v.1.15,2013-01-08 03:46:00,
2013-01-07 22:51:00,5.8,3.5,30.28,East,86,1.0,1.0,90,0.00,,,0.00,Wunderground v.1.15,2013-01-08 03:51:00,
2013-01-07 22:56:00,6.0,3.7,30.28,ENE,78,0.0,2.0,90,0.00,,,0.00,Wunderground v.1.15,2013-01-08 03:56:00,
2013-01-07 23:01:00,5.9,3.6,30.28,East,79,0.0,1.0,90,0.00,,,0.00,Wunderground v.1.15,2013-01-08 04:01:00,
2013-01-07 23:06:00,6.2,4.1,30.28,East,80,1.0,2.0,91,0.00,,,0.00,Wunderground v.1.15,2013-01-08 04:06:00,
2013-01-07 23:11:00,6.1,3.8,30.27,East,82,0.0,1.0,90,0.00,,,0.00,Wunderground v.1.15,2013-01-08 04:11:00,
2013-01-07 23:17:00,6.1,4.0,30.27,East,85,0.0,2.0,91,0.00,,,0.00,Wunderground v.1.15,2013-01-08 04:17:00,
2013-01-07 23:22:00,6.3,4.2,30.27,East,79,1.0,1.0,91,0.00,,,0.00,Wunderground v.1.15,2013-01-08 04:22:00,
2013-01-07 23:27:00,6.2,3.9,30.27,East,79,0.0,1.0,90,0.00,,,0.00,Wunderground v.1.15,2013-01-08 04:27:00,
2013-01-07 23:32:00,6.3,4.2,30.27,East,79,0.0,1.0,91,0.00,,,0.00,Wunderground v.1.15,2013-01-08 04:32:00,
2013-01-07 23:37:00,6.4,4.3,30.27,East,79,0.0,1.0,91,0.00,,,0.00,Wunderground v.1.15,2013-01-08 04:37:00,
2013-01-07 23:42:00,6.5,4.4,30.27,ESE,105,0.0,1.0,91,0.00,,,0.00,Wunderground v.1.15,2013-01-08 04:42:00,
2013-01-07 23:47:00,6.6,4.5,30.27,East,88,2.0,2.0,91,0.00,,,0.00,Wunderground v.1.15,2013-01-08 04:47:00,
2013-01-07 23:52:00,6.6,4.3,30.27,East,86,0.0,1.0,90,0.00,,,0.00,Wunderground v.1.15,2013-01-08 04:52:00,
2013-01-07 23:57:00,6.6,4.3,30.27,East,86,1.0,1.0,90,0.00,,,0.00,Wunderground v.1.15,2013-01-08 04:57:00,